sensor_id;sensor_type;location;lat;lon;timestamp;temperature;humidity
6357;DHT22;3211;53.452;-2.264;2024-02-23T00:00:43;4.10;99.90
6357;DHT22;3211;53.452;-2.264;2024-02-23T00:03:30;4.20;99.90
6357;DHT22;3211;53.452;-2.264;2024-02-23T00:06:17;4.10;99.90
6357;DHT22;3211;53.452;-2.264;2024-02-23T00:09:05;4.10;99.90
6357;DHT22;3211;53.452;-2.264;2024-02-23T00:11:52;4.20;99.90
6357;DHT22;3211;53.452;-2.264;2024-02-23T00:14:39;4.20;99.90
6357;DHT22;3211;53.452;-2.264;2024-02-23T00:17:28;4.20;99.90
6357;DHT22;3211;53.452;-2.264;2024-02-23T00:20:15;4.20;99.90
6357;DHT22;3211;53.452;-2.264;2024-02-23T00:23:03;4.30;99.90
6357;DHT22;3211;53.452;-2.264;2024-02-23T00:25:50;4.30;99.90
6357;DHT22;3211;53.452;-2.264;2024-02-23T00:28:37;4.10;99.90
6357;DHT22;3211;53.452;-2.264;2024-02-23T00:31:24;4.10;99.90
6357;DHT22;3211;53.452;-2.264;2024-02-23T00:34:13;4.10;99.90
6357;DHT22;3211;53.452;-2.264;2024-02-23T00:37:01;4.10;99.90
6357;DHT22;3211;53.452;-2.264;2024-02-23T00:39:49;4.20;99.90
6357;DHT22;3211;53.452;-2.264;2024-02-23T00:42:36;4.10;99.90
6357;DHT22;3211;53.452;-2.264;2024-02-23T00:45:23;4.20;99.90
6357;DHT22;3211;53.452;-2.264;2024-02-23T00:48:11;4.20;99.90
6357;DHT22;3211;53.452;-2.264;2024-02-23T00:51:01;4.10;99.90
6357;DHT22;3211;53.452;-2.264;2024-02-23T00:53:49;4.20;99.90
6357;DHT22;3211;53.452;-2.264;2024-02-23T00:56:36;4.10;99.90
6357;DHT22;3211;53.452;-2.264;2024-02-23T00:59:23;4.20;99.90
6357;DHT22;3211;53.452;-2.264;2024-02-23T01:02:11;4.10;99.90
6357;DHT22;3211;53.452;-2.264;2024-02-23T01:04:58;4.10;99.90
6357;DHT22;3211;53.452;-2.264;2024-02-23T01:07:46;4.20;99.90
6357;DHT22;3211;53.452;-2.264;2024-02-23T01:10:34;4.30;99.90
6357;DHT22;3211;53.452;-2.264;2024-02-23T01:13:21;4.30;99.90
6357;DHT22;3211;53.452;-2.264;2024-02-23T01:16:08;4.30;99.90
6357;DHT22;3211;53.452;-2.264;2024-02-23T01:18:55;4.40;99.90
6357;DHT22;3211;53.452;-2.264;2024-02-23T01:21:43;4.40;99.90
6357;DHT22;3211;53.452;-2.264;2024-02-23T01:24:31;4.40;99.90
6357;DHT22;3211;53.452;-2.264;2024-02-23T01:27:18;4.50;99.90
6357;DHT22;3211;53.452;-2.264;2024-02-23T01:30:07;4.50;99.90
6357;DHT22;3211;53.452;-2.264;2024-02-23T01:32:54;4.50;99.90
6357;DHT22;3211;53.452;-2.264;2024-02-23T01:35:41;4.50;99.90
6357;DHT22;3211;53.452;-2.264;2024-02-23T01:38:28;4.50;99.90
6357;DHT22;3211;53.452;-2.264;2024-02-23T01:41:19;4.60;99.90
6357;DHT22;3211;53.452;-2.264;2024-02-23T01:44:07;4.60;99.90
6357;DHT22;3211;53.452;-2.264;2024-02-23T01:46:54;4.60;99.90
6357;DHT22;3211;53.452;-2.264;2024-02-23T01:49:41;4.60;99.90
6357;DHT22;3211;53.452;-2.264;2024-02-23T01:52:29;4.60;99.90
6357;DHT22;3211;53.452;-2.264;2024-02-23T01:55:16;4.60;99.90
6357;DHT22;3211;53.452;-2.264;2024-02-23T01:58:05;4.70;99.90
6357;DHT22;3211;53.452;-2.264;2024-02-23T02:00:53;4.70;99.90
6357;DHT22;3211;53.452;-2.264;2024-02-23T02:03:40;4.60;99.90
6357;DHT22;3211;53.452;-2.264;2024-02-23T02:06:27;4.60;99.90
6357;DHT22;3211;53.452;-2.264;2024-02-23T02:09:14;4.60;99.90
6357;DHT22;3211;53.452;-2.264;2024-02-23T02:12:02;4.70;99.90
6357;DHT22;3211;53.452;-2.264;2024-02-23T02:14:50;4.60;99.90
6357;DHT22;3211;53.452;-2.264;2024-02-23T02:17:38;4.60;99.90
6357;DHT22;3211;53.452;-2.264;2024-02-23T02:20:25;4.70;99.90
6357;DHT22;3211;53.452;-2.264;2024-02-23T02:23:14;4.60;99.90
6357;DHT22;3211;53.452;-2.264;2024-02-23T02:26:02;4.60;99.90
6357;DHT22;3211;53.452;-2.264;2024-02-23T02:28:49;4.50;99.90
6357;DHT22;3211;53.452;-2.264;2024-02-23T02:31:39;4.50;99.90
6357;DHT22;3211;53.452;-2.264;2024-02-23T02:34:26;4.50;99.90
6357;DHT22;3211;53.452;-2.264;2024-02-23T02:37:15;4.50;99.90
6357;DHT22;3211;53.452;-2.264;2024-02-23T02:40:02;4.40;99.90
6357;DHT22;3211;53.452;-2.264;2024-02-23T02:42:50;4.40;99.90
6357;DHT22;3211;53.452;-2.264;2024-02-23T02:45:37;4.40;99.90
6357;DHT22;3211;53.452;-2.264;2024-02-23T02:48:26;4.40;99.90
6357;DHT22;3211;53.452;-2.264;2024-02-23T02:51:13;4.40;99.90
6357;DHT22;3211;53.452;-2.264;2024-02-23T02:54:00;4.40;99.90
6357;DHT22;3211;53.452;-2.264;2024-02-23T02:56:48;4.30;99.90
6357;DHT22;3211;53.452;-2.264;2024-02-23T02:59:36;4.30;99.90
6357;DHT22;3211;53.452;-2.264;2024-02-23T03:02:23;4.30;99.90
6357;DHT22;3211;53.452;-2.264;2024-02-23T03:05:12;4.30;99.90
6357;DHT22;3211;53.452;-2.264;2024-02-23T03:07:59;4.30;99.90
6357;DHT22;3211;53.452;-2.264;2024-02-23T03:10:46;4.30;99.90
6357;DHT22;3211;53.452;-2.264;2024-02-23T03:13:34;4.30;99.90
6357;DHT22;3211;53.452;-2.264;2024-02-23T03:16:21;4.30;99.90
6357;DHT22;3211;53.452;-2.264;2024-02-23T03:19:11;4.30;99.90
6357;DHT22;3211;53.452;-2.264;2024-02-23T03:22:00;4.30;99.90
6357;DHT22;3211;53.452;-2.264;2024-02-23T03:24:47;4.30;99.90
6357;DHT22;3211;53.452;-2.264;2024-02-23T03:27:35;4.20;99.90
6357;DHT22;3211;53.452;-2.264;2024-02-23T03:30:23;4.30;99.90
6357;DHT22;3211;53.452;-2.264;2024-02-23T03:33:10;4.20;99.90
6357;DHT22;3211;53.452;-2.264;2024-02-23T03:35:58;4.30;99.90
6357;DHT22;3211;53.452;-2.264;2024-02-23T03:38:47;4.30;99.90
6357;DHT22;3211;53.452;-2.264;2024-02-23T03:41:34;4.30;99.90
6357;DHT22;3211;53.452;-2.264;2024-02-23T03:44:21;4.30;99.90
6357;DHT22;3211;53.452;-2.264;2024-02-23T03:47:08;4.30;99.90
6357;DHT22;3211;53.452;-2.264;2024-02-23T03:49:56;4.30;99.90
6357;DHT22;3211;53.452;-2.264;2024-02-23T03:52:43;4.30;99.90
6357;DHT22;3211;53.452;-2.264;2024-02-23T03:55:31;4.20;99.90
6357;DHT22;3211;53.452;-2.264;2024-02-23T03:58:19;4.20;99.90
6357;DHT22;3211;53.452;-2.264;2024-02-23T04:01:06;4.20;99.90
6357;DHT22;3211;53.452;-2.264;2024-02-23T04:03:53;4.10;99.90
6357;DHT22;3211;53.452;-2.264;2024-02-23T04:06:40;4.10;99.90
6357;DHT22;3211;53.452;-2.264;2024-02-23T04:09:28;4.10;99.90
6357;DHT22;3211;53.452;-2.264;2024-02-23T04:12:16;4.10;99.90
6357;DHT22;3211;53.452;-2.264;2024-02-23T04:15:04;4.00;99.90
6357;DHT22;3211;53.452;-2.264;2024-02-23T04:17:52;4.00;99.90
6357;DHT22;3211;53.452;-2.264;2024-02-23T04:20:39;4.00;99.90
6357;DHT22;3211;53.452;-2.264;2024-02-23T04:23:26;4.00;99.90
6357;DHT22;3211;53.452;-2.264;2024-02-23T04:26:13;4.00;99.90
6357;DHT22;3211;53.452;-2.264;2024-02-23T04:29:02;4.00;99.90
6357;DHT22;3211;53.452;-2.264;2024-02-23T04:31:49;4.00;99.90
6357;DHT22;3211;53.452;-2.264;2024-02-23T04:34:36;4.00;99.90
6357;DHT22;3211;53.452;-2.264;2024-02-23T04:37:25;4.00;99.90
6357;DHT22;3211;53.452;-2.264;2024-02-23T04:40:12;4.10;99.90
6357;DHT22;3211;53.452;-2.264;2024-02-23T04:43:00;4.10;99.90
6357;DHT22;3211;53.452;-2.264;2024-02-23T04:45:48;4.10;99.90
6357;DHT22;3211;53.452;-2.264;2024-02-23T04:48:35;4.10;99.90
6357;DHT22;3211;53.452;-2.264;2024-02-23T04:51:23;4.00;99.90
6357;DHT22;3211;53.452;-2.264;2024-02-23T04:54:10;3.90;99.90
6357;DHT22;3211;53.452;-2.264;2024-02-23T04:56:57;3.90;99.90
6357;DHT22;3211;53.452;-2.264;2024-02-23T04:59:44;3.90;99.90
6357;DHT22;3211;53.452;-2.264;2024-02-23T05:02:33;3.80;99.90
6357;DHT22;3211;53.452;-2.264;2024-02-23T05:05:21;3.80;99.90
6357;DHT22;3211;53.452;-2.264;2024-02-23T05:08:08;3.90;99.90
6357;DHT22;3211;53.452;-2.264;2024-02-23T05:10:56;3.90;99.90
6357;DHT22;3211;53.452;-2.264;2024-02-23T05:13:44;4.00;99.90
6357;DHT22;3211;53.452;-2.264;2024-02-23T05:16:31;4.10;99.90
6357;DHT22;3211;53.452;-2.264;2024-02-23T05:19:19;4.10;99.90
6357;DHT22;3211;53.452;-2.264;2024-02-23T05:22:07;4.20;99.90
6357;DHT22;3211;53.452;-2.264;2024-02-23T05:24:54;4.10;99.90
6357;DHT22;3211;53.452;-2.264;2024-02-23T05:27:41;4.10;99.90
6357;DHT22;3211;53.452;-2.264;2024-02-23T05:30:28;4.10;99.90
6357;DHT22;3211;53.452;-2.264;2024-02-23T05:33:17;4.10;99.90
6357;DHT22;3211;53.452;-2.264;2024-02-23T05:36:08;4.20;99.90
6357;DHT22;3211;53.452;-2.264;2024-02-23T05:38:55;4.40;99.90
6357;DHT22;3211;53.452;-2.264;2024-02-23T05:41:42;4.20;99.90
6357;DHT22;3211;53.452;-2.264;2024-02-23T05:44:30;4.20;99.90
6357;DHT22;3211;53.452;-2.264;2024-02-23T05:47:17;4.20;99.90
6357;DHT22;3211;53.452;-2.264;2024-02-23T05:50:05;4.40;99.90
6357;DHT22;3211;53.452;-2.264;2024-02-23T05:52:54;4.40;99.90
6357;DHT22;3211;53.452;-2.264;2024-02-23T05:55:41;4.40;99.90
6357;DHT22;3211;53.452;-2.264;2024-02-23T05:58:28;4.40;99.90
6357;DHT22;3211;53.452;-2.264;2024-02-23T06:01:16;4.40;99.90
6357;DHT22;3211;53.452;-2.264;2024-02-23T06:04:03;4.30;99.90
6357;DHT22;3211;53.452;-2.264;2024-02-23T06:06:51;4.50;99.90
6357;DHT22;3211;53.452;-2.264;2024-02-23T06:09:40;4.30;99.90
6357;DHT22;3211;53.452;-2.264;2024-02-23T06:12:27;4.30;99.90
6357;DHT22;3211;53.452;-2.264;2024-02-23T06:15:14;4.20;99.90
6357;DHT22;3211;53.452;-2.264;2024-02-23T06:18:02;4.10;99.90
6357;DHT22;3211;53.452;-2.264;2024-02-23T06:20:50;4.10;99.90
6357;DHT22;3211;53.452;-2.264;2024-02-23T06:23:37;4.20;99.90
6357;DHT22;3211;53.452;-2.264;2024-02-23T06:26:27;4.20;99.90
6357;DHT22;3211;53.452;-2.264;2024-02-23T06:29:14;4.10;99.90
6357;DHT22;3211;53.452;-2.264;2024-02-23T06:32:01;4.20;99.90
6357;DHT22;3211;53.452;-2.264;2024-02-23T06:34:49;4.30;99.90
6357;DHT22;3211;53.452;-2.264;2024-02-23T06:37:36;4.30;99.90
6357;DHT22;3211;53.452;-2.264;2024-02-23T06:40:24;4.30;99.90
6357;DHT22;3211;53.452;-2.264;2024-02-23T06:43:12;4.20;99.90
6357;DHT22;3211;53.452;-2.264;2024-02-23T06:46:05;4.20;99.90
6357;DHT22;3211;53.452;-2.264;2024-02-23T06:48:53;4.20;99.90
6357;DHT22;3211;53.452;-2.264;2024-02-23T06:51:40;4.30;99.90
6357;DHT22;3211;53.452;-2.264;2024-02-23T06:54:28;4.40;99.90
6357;DHT22;3211;53.452;-2.264;2024-02-23T06:57:15;4.40;99.90
6357;DHT22;3211;53.452;-2.264;2024-02-23T07:00:05;4.40;99.90
6357;DHT22;3211;53.452;-2.264;2024-02-23T07:02:53;4.30;99.90
6357;DHT22;3211;53.452;-2.264;2024-02-23T07:05:40;4.40;99.90
6357;DHT22;3211;53.452;-2.264;2024-02-23T07:08:28;4.40;99.90
6357;DHT22;3211;53.452;-2.264;2024-02-23T07:11:16;4.40;99.90
6357;DHT22;3211;53.452;-2.264;2024-02-23T07:14:03;4.40;99.90
6357;DHT22;3211;53.452;-2.264;2024-02-23T07:16:52;4.40;99.90
6357;DHT22;3211;53.452;-2.264;2024-02-23T07:19:39;4.40;99.90
6357;DHT22;3211;53.452;-2.264;2024-02-23T07:22:26;4.40;99.90
6357;DHT22;3211;53.452;-2.264;2024-02-23T07:25:16;4.50;99.90
6357;DHT22;3211;53.452;-2.264;2024-02-23T07:28:03;4.60;99.90
6357;DHT22;3211;53.452;-2.264;2024-02-23T07:30:51;4.70;99.90
6357;DHT22;3211;53.452;-2.264;2024-02-23T07:33:40;4.80;99.90
6357;DHT22;3211;53.452;-2.264;2024-02-23T07:36:27;4.90;99.90
6357;DHT22;3211;53.452;-2.264;2024-02-23T07:39:15;4.80;99.90
6357;DHT22;3211;53.452;-2.264;2024-02-23T07:42:02;4.90;99.90
6357;DHT22;3211;53.452;-2.264;2024-02-23T07:44:49;4.90;99.90
6357;DHT22;3211;53.452;-2.264;2024-02-23T07:47:36;4.90;99.90
6357;DHT22;3211;53.452;-2.264;2024-02-23T07:50:25;4.80;99.90
6357;DHT22;3211;53.452;-2.264;2024-02-23T07:53:12;4.80;99.90
6357;DHT22;3211;53.452;-2.264;2024-02-23T07:56:00;4.60;99.90
6357;DHT22;3211;53.452;-2.264;2024-02-23T07:58:48;4.70;99.90
6357;DHT22;3211;53.452;-2.264;2024-02-23T08:01:35;4.80;99.90
6357;DHT22;3211;53.452;-2.264;2024-02-23T08:04:22;4.70;99.90
6357;DHT22;3211;53.452;-2.264;2024-02-23T08:07:11;4.70;99.90
6357;DHT22;3211;53.452;-2.264;2024-02-23T08:09:58;4.80;99.90
6357;DHT22;3211;53.452;-2.264;2024-02-23T08:12:46;4.80;99.90
6357;DHT22;3211;53.452;-2.264;2024-02-23T08:15:33;4.70;99.90
6357;DHT22;3211;53.452;-2.264;2024-02-23T08:18:22;4.70;99.90
6357;DHT22;3211;53.452;-2.264;2024-02-23T08:21:10;4.70;99.90
6357;DHT22;3211;53.452;-2.264;2024-02-23T08:23:58;4.90;99.90
6357;DHT22;3211;53.452;-2.264;2024-02-23T08:26:46;4.90;99.90
6357;DHT22;3211;53.452;-2.264;2024-02-23T08:29:37;4.90;99.90
6357;DHT22;3211;53.452;-2.264;2024-02-23T08:32:24;4.80;99.90
6357;DHT22;3211;53.452;-2.264;2024-02-23T08:35:11;4.90;99.90
6357;DHT22;3211;53.452;-2.264;2024-02-23T08:37:59;4.80;99.90
6357;DHT22;3211;53.452;-2.264;2024-02-23T08:40:48;4.90;99.90
6357;DHT22;3211;53.452;-2.264;2024-02-23T08:43:36;5.00;99.90
6357;DHT22;3211;53.452;-2.264;2024-02-23T08:46:23;5.00;99.90
6357;DHT22;3211;53.452;-2.264;2024-02-23T08:49:10;5.00;99.90
6357;DHT22;3211;53.452;-2.264;2024-02-23T08:51:58;4.90;99.90
6357;DHT22;3211;53.452;-2.264;2024-02-23T08:54:45;5.00;99.90
6357;DHT22;3211;53.452;-2.264;2024-02-23T08:57:33;5.10;99.90
6357;DHT22;3211;53.452;-2.264;2024-02-23T09:00:21;5.10;99.90
6357;DHT22;3211;53.452;-2.264;2024-02-23T09:03:08;5.20;99.90
6357;DHT22;3211;53.452;-2.264;2024-02-23T09:05:55;5.20;99.90
6357;DHT22;3211;53.452;-2.264;2024-02-23T09:08:43;5.50;99.90
6357;DHT22;3211;53.452;-2.264;2024-02-23T09:11:30;5.80;99.90
6357;DHT22;3211;53.452;-2.264;2024-02-23T09:14:18;5.60;99.90
6357;DHT22;3211;53.452;-2.264;2024-02-23T09:17:06;5.70;99.90
6357;DHT22;3211;53.452;-2.264;2024-02-23T09:19:54;5.70;99.90
6357;DHT22;3211;53.452;-2.264;2024-02-23T09:22:42;5.60;99.90
6357;DHT22;3211;53.452;-2.264;2024-02-23T09:25:29;5.50;99.90
6357;DHT22;3211;53.452;-2.264;2024-02-23T09:28:16;5.50;99.90
6357;DHT22;3211;53.452;-2.264;2024-02-23T09:31:05;5.60;99.90
6357;DHT22;3211;53.452;-2.264;2024-02-23T09:33:52;5.60;99.90
6357;DHT22;3211;53.452;-2.264;2024-02-23T09:36:39;5.50;99.90
6357;DHT22;3211;53.452;-2.264;2024-02-23T09:39:27;5.50;99.90
6357;DHT22;3211;53.452;-2.264;2024-02-23T09:42:16;5.40;99.90
6357;DHT22;3211;53.452;-2.264;2024-02-23T09:45:05;5.40;99.90
6357;DHT22;3211;53.452;-2.264;2024-02-23T09:47:57;5.40;99.90
6357;DHT22;3211;53.452;-2.264;2024-02-23T09:50:45;5.20;99.90
6357;DHT22;3211;53.452;-2.264;2024-02-23T09:53:37;4.70;99.90
6357;DHT22;3211;53.452;-2.264;2024-02-23T09:56:27;4.90;99.90
6357;DHT22;3211;53.452;-2.264;2024-02-23T09:59:14;5.00;99.90
6357;DHT22;3211;53.452;-2.264;2024-02-23T10:02:02;5.20;99.90
6357;DHT22;3211;53.452;-2.264;2024-02-23T10:04:54;5.40;99.90
6357;DHT22;3211;53.452;-2.264;2024-02-23T10:07:43;5.30;99.90
6357;DHT22;3211;53.452;-2.264;2024-02-23T10:10:33;5.50;99.90
6357;DHT22;3211;53.452;-2.264;2024-02-23T10:13:21;5.40;99.90
6357;DHT22;3211;53.452;-2.264;2024-02-23T10:16:09;5.30;99.90
6357;DHT22;3211;53.452;-2.264;2024-02-23T10:18:57;5.50;99.90
6357;DHT22;3211;53.452;-2.264;2024-02-23T10:21:46;5.50;99.90
6357;DHT22;3211;53.452;-2.264;2024-02-23T10:24:34;5.40;99.90
6357;DHT22;3211;53.452;-2.264;2024-02-23T10:27:23;5.40;99.90
6357;DHT22;3211;53.452;-2.264;2024-02-23T10:30:11;5.50;99.90
6357;DHT22;3211;53.452;-2.264;2024-02-23T10:33:01;5.60;99.90
6357;DHT22;3211;53.452;-2.264;2024-02-23T10:35:51;5.50;99.90
6357;DHT22;3211;53.452;-2.264;2024-02-23T10:38:45;5.50;99.90
6357;DHT22;3211;53.452;-2.264;2024-02-23T10:41:35;5.50;99.90
6357;DHT22;3211;53.452;-2.264;2024-02-23T10:44:24;5.60;99.90
6357;DHT22;3211;53.452;-2.264;2024-02-23T10:47:11;5.70;99.90
6357;DHT22;3211;53.452;-2.264;2024-02-23T10:50:00;6.10;99.90
6357;DHT22;3211;53.452;-2.264;2024-02-23T10:52:49;6.20;99.90
6357;DHT22;3211;53.452;-2.264;2024-02-23T10:55:38;6.00;99.90
6357;DHT22;3211;53.452;-2.264;2024-02-23T10:58:26;5.80;99.90
6357;DHT22;3211;53.452;-2.264;2024-02-23T11:01:14;6.00;99.90
6357;DHT22;3211;53.452;-2.264;2024-02-23T11:04:02;5.80;99.90
6357;DHT22;3211;53.452;-2.264;2024-02-23T11:06:50;5.70;99.90
6357;DHT22;3211;53.452;-2.264;2024-02-23T11:09:38;5.70;99.90
6357;DHT22;3211;53.452;-2.264;2024-02-23T11:12:29;5.70;99.90
6357;DHT22;3211;53.452;-2.264;2024-02-23T11:15:26;5.90;99.90
6357;DHT22;3211;53.452;-2.264;2024-02-23T11:18:23;5.90;99.90
6357;DHT22;3211;53.452;-2.264;2024-02-23T11:21:10;5.90;99.90
6357;DHT22;3211;53.452;-2.264;2024-02-23T11:24:02;5.80;99.90
6357;DHT22;3211;53.452;-2.264;2024-02-23T11:26:49;5.80;99.90
6357;DHT22;3211;53.452;-2.264;2024-02-23T11:29:37;6.10;99.90
6357;DHT22;3211;53.452;-2.264;2024-02-23T11:32:36;6.20;99.90
6357;DHT22;3211;53.452;-2.264;2024-02-23T11:35:25;6.10;99.90
6357;DHT22;3211;53.452;-2.264;2024-02-23T11:38:14;6.20;99.90
6357;DHT22;3211;53.452;-2.264;2024-02-23T11:41:03;6.40;99.90
6357;DHT22;3211;53.452;-2.264;2024-02-23T11:43:51;6.40;99.90
6357;DHT22;3211;53.452;-2.264;2024-02-23T11:46:39;6.40;99.90
6357;DHT22;3211;53.452;-2.264;2024-02-23T11:49:28;6.50;99.90
6357;DHT22;3211;53.452;-2.264;2024-02-23T11:52:16;6.50;99.90
6357;DHT22;3211;53.452;-2.264;2024-02-23T11:55:04;6.30;99.90
6357;DHT22;3211;53.452;-2.264;2024-02-23T11:57:52;6.30;99.90
6357;DHT22;3211;53.452;-2.264;2024-02-23T12:00:40;6.50;99.90
6357;DHT22;3211;53.452;-2.264;2024-02-23T12:03:28;6.50;99.90
6357;DHT22;3211;53.452;-2.264;2024-02-23T12:06:17;6.90;99.90
6357;DHT22;3211;53.452;-2.264;2024-02-23T12:09:04;7.10;99.90
6357;DHT22;3211;53.452;-2.264;2024-02-23T12:11:52;7.30;99.90
6357;DHT22;3211;53.452;-2.264;2024-02-23T12:14:40;7.70;99.90
6357;DHT22;3211;53.452;-2.264;2024-02-23T12:17:27;7.90;99.90
6357;DHT22;3211;53.452;-2.264;2024-02-23T12:20:16;7.90;99.90
6357;DHT22;3211;53.452;-2.264;2024-02-23T12:23:04;8.40;99.90
6357;DHT22;3211;53.452;-2.264;2024-02-23T12:25:53;8.60;99.90
6357;DHT22;3211;53.452;-2.264;2024-02-23T12:28:41;8.10;99.90
6357;DHT22;3211;53.452;-2.264;2024-02-23T12:31:28;7.90;99.90
6357;DHT22;3211;53.452;-2.264;2024-02-23T12:34:16;8.00;99.90
6357;DHT22;3211;53.452;-2.264;2024-02-23T12:37:05;8.00;99.90
6357;DHT22;3211;53.452;-2.264;2024-02-23T12:39:52;8.20;99.90
6357;DHT22;3211;53.452;-2.264;2024-02-23T12:42:39;8.20;99.90
6357;DHT22;3211;53.452;-2.264;2024-02-23T12:45:26;8.30;99.90
6357;DHT22;3211;53.452;-2.264;2024-02-23T12:48:14;8.30;99.90
6357;DHT22;3211;53.452;-2.264;2024-02-23T12:51:01;8.40;99.90
6357;DHT22;3211;53.452;-2.264;2024-02-23T12:53:49;8.90;99.90
6357;DHT22;3211;53.452;-2.264;2024-02-23T12:56:37;9.50;99.90
6357;DHT22;3211;53.452;-2.264;2024-02-23T12:59:24;9.70;99.90
6357;DHT22;3211;53.452;-2.264;2024-02-23T13:02:12;9.20;99.90
6357;DHT22;3211;53.452;-2.264;2024-02-23T13:04:59;9.20;99.90
6357;DHT22;3211;53.452;-2.264;2024-02-23T13:07:47;9.00;99.90
6357;DHT22;3211;53.452;-2.264;2024-02-23T13:10:36;8.80;99.90
6357;DHT22;3211;53.452;-2.264;2024-02-23T13:13:23;8.80;99.90
6357;DHT22;3211;53.452;-2.264;2024-02-23T13:16:11;8.80;99.90
6357;DHT22;3211;53.452;-2.264;2024-02-23T13:19:00;8.70;99.90
6357;DHT22;3211;53.452;-2.264;2024-02-23T13:21:48;9.10;99.90
6357;DHT22;3211;53.452;-2.264;2024-02-23T13:24:35;9.70;99.90
6357;DHT22;3211;53.452;-2.264;2024-02-23T13:27:24;10.00;99.90
6357;DHT22;3211;53.452;-2.264;2024-02-23T13:30:12;10.30;99.90
6357;DHT22;3211;53.452;-2.264;2024-02-23T13:32:59;10.40;99.90
6357;DHT22;3211;53.452;-2.264;2024-02-23T13:35:47;10.60;99.90
6357;DHT22;3211;53.452;-2.264;2024-02-23T13:38:34;10.40;99.90
6357;DHT22;3211;53.452;-2.264;2024-02-23T13:41:23;10.20;99.90
6357;DHT22;3211;53.452;-2.264;2024-02-23T13:44:12;10.00;99.90
6357;DHT22;3211;53.452;-2.264;2024-02-23T13:46:59;9.60;99.90
6357;DHT22;3211;53.452;-2.264;2024-02-23T13:49:46;9.30;99.90
6357;DHT22;3211;53.452;-2.264;2024-02-23T13:52:34;9.00;99.90
6357;DHT22;3211;53.452;-2.264;2024-02-23T13:55:21;9.10;99.90
6357;DHT22;3211;53.452;-2.264;2024-02-23T13:58:08;9.00;99.90
6357;DHT22;3211;53.452;-2.264;2024-02-23T14:00:57;8.80;99.90
6357;DHT22;3211;53.452;-2.264;2024-02-23T14:03:44;8.80;99.90
6357;DHT22;3211;53.452;-2.264;2024-02-23T14:06:32;8.80;99.90
6357;DHT22;3211;53.452;-2.264;2024-02-23T14:09:20;9.10;99.90
6357;DHT22;3211;53.452;-2.264;2024-02-23T14:12:07;9.60;99.90
6357;DHT22;3211;53.452;-2.264;2024-02-23T14:14:54;10.00;99.90
6357;DHT22;3211;53.452;-2.264;2024-02-23T14:17:43;10.30;99.90
6357;DHT22;3211;53.452;-2.264;2024-02-23T14:20:31;10.60;99.90
6357;DHT22;3211;53.452;-2.264;2024-02-23T14:23:18;10.20;99.90
6357;DHT22;3211;53.452;-2.264;2024-02-23T14:26:05;9.70;99.90
6357;DHT22;3211;53.452;-2.264;2024-02-23T14:28:53;9.70;99.90
6357;DHT22;3211;53.452;-2.264;2024-02-23T14:31:40;9.50;99.90
6357;DHT22;3211;53.452;-2.264;2024-02-23T14:34:29;9.50;99.90
6357;DHT22;3211;53.452;-2.264;2024-02-23T14:37:19;9.60;99.90
6357;DHT22;3211;53.452;-2.264;2024-02-23T14:40:07;9.90;99.90
6357;DHT22;3211;53.452;-2.264;2024-02-23T14:42:55;9.80;99.90
6357;DHT22;3211;53.452;-2.264;2024-02-23T14:45:42;9.60;99.90
6357;DHT22;3211;53.452;-2.264;2024-02-23T14:48:30;9.60;99.90
6357;DHT22;3211;53.452;-2.264;2024-02-23T14:51:18;9.60;99.90
6357;DHT22;3211;53.452;-2.264;2024-02-23T14:54:05;10.30;99.90
6357;DHT22;3211;53.452;-2.264;2024-02-23T14:56:53;10.40;99.90
6357;DHT22;3211;53.452;-2.264;2024-02-23T14:59:40;9.90;99.90
6357;DHT22;3211;53.452;-2.264;2024-02-23T15:02:32;9.50;99.90
6357;DHT22;3211;53.452;-2.264;2024-02-23T15:05:19;9.30;99.90
6357;DHT22;3211;53.452;-2.264;2024-02-23T15:08:08;9.40;99.90
6357;DHT22;3211;53.452;-2.264;2024-02-23T15:10:55;9.10;99.90
6357;DHT22;3211;53.452;-2.264;2024-02-23T15:13:43;8.60;99.90
6357;DHT22;3211;53.452;-2.264;2024-02-23T15:16:30;8.60;99.90
6357;DHT22;3211;53.452;-2.264;2024-02-23T15:19:17;8.50;99.90
6357;DHT22;3211;53.452;-2.264;2024-02-23T15:22:05;8.60;99.90
6357;DHT22;3211;53.452;-2.264;2024-02-23T15:24:55;8.50;99.90
6357;DHT22;3211;53.452;-2.264;2024-02-23T15:27:45;8.50;99.90
6357;DHT22;3211;53.452;-2.264;2024-02-23T15:30:33;8.50;99.90
6357;DHT22;3211;53.452;-2.264;2024-02-23T15:33:21;8.20;99.90
6357;DHT22;3211;53.452;-2.264;2024-02-23T15:36:08;8.20;99.90
6357;DHT22;3211;53.452;-2.264;2024-02-23T15:38:55;8.00;99.90
6357;DHT22;3211;53.452;-2.264;2024-02-23T15:41:46;8.40;99.90
6357;DHT22;3211;53.452;-2.264;2024-02-23T15:44:33;8.40;99.90
6357;DHT22;3211;53.452;-2.264;2024-02-23T15:47:21;8.50;99.90
6357;DHT22;3211;53.452;-2.264;2024-02-23T15:50:09;8.50;99.90
6357;DHT22;3211;53.452;-2.264;2024-02-23T15:52:57;8.40;99.90
6357;DHT22;3211;53.452;-2.264;2024-02-23T15:55:44;8.20;99.90
6357;DHT22;3211;53.452;-2.264;2024-02-23T15:58:33;8.10;99.90
6357;DHT22;3211;53.452;-2.264;2024-02-23T16:01:20;8.10;99.90
6357;DHT22;3211;53.452;-2.264;2024-02-23T16:04:09;8.10;99.90
6357;DHT22;3211;53.452;-2.264;2024-02-23T16:06:57;7.90;99.90
6357;DHT22;3211;53.452;-2.264;2024-02-23T16:09:44;7.90;99.90
6357;DHT22;3211;53.452;-2.264;2024-02-23T16:12:31;7.90;99.90
6357;DHT22;3211;53.452;-2.264;2024-02-23T16:15:20;7.90;99.90
6357;DHT22;3211;53.452;-2.264;2024-02-23T16:18:07;7.90;99.90
6357;DHT22;3211;53.452;-2.264;2024-02-23T16:20:55;8.00;99.90
6357;DHT22;3211;53.452;-2.264;2024-02-23T16:23:42;7.90;99.90
6357;DHT22;3211;53.452;-2.264;2024-02-23T16:26:29;7.90;99.90
6357;DHT22;3211;53.452;-2.264;2024-02-23T16:29:20;7.80;99.90
6357;DHT22;3211;53.452;-2.264;2024-02-23T16:32:09;7.90;99.90
6357;DHT22;3211;53.452;-2.264;2024-02-23T16:34:56;8.00;99.90
6357;DHT22;3211;53.452;-2.264;2024-02-23T16:37:44;8.00;99.90
6357;DHT22;3211;53.452;-2.264;2024-02-23T16:40:31;8.00;99.90
6357;DHT22;3211;53.452;-2.264;2024-02-23T16:43:18;7.90;99.90
6357;DHT22;3211;53.452;-2.264;2024-02-23T16:46:05;7.90;99.90
6357;DHT22;3211;53.452;-2.264;2024-02-23T16:48:54;7.90;99.90
6357;DHT22;3211;53.452;-2.264;2024-02-23T16:51:41;7.90;99.90
6357;DHT22;3211;53.452;-2.264;2024-02-23T16:54:30;7.80;99.90
6357;DHT22;3211;53.452;-2.264;2024-02-23T16:57:17;7.80;99.90
6357;DHT22;3211;53.452;-2.264;2024-02-23T17:00:05;7.90;99.90
6357;DHT22;3211;53.452;-2.264;2024-02-23T17:02:53;7.80;99.90
6357;DHT22;3211;53.452;-2.264;2024-02-23T17:05:42;7.80;99.90
6357;DHT22;3211;53.452;-2.264;2024-02-23T17:08:30;7.90;99.90
6357;DHT22;3211;53.452;-2.264;2024-02-23T17:11:17;7.70;99.90
6357;DHT22;3211;53.452;-2.264;2024-02-23T17:14:04;7.70;99.90
6357;DHT22;3211;53.452;-2.264;2024-02-23T17:16:52;7.50;99.90
6357;DHT22;3211;53.452;-2.264;2024-02-23T17:19:39;7.10;99.90
6357;DHT22;3211;53.452;-2.264;2024-02-23T17:22:28;6.70;99.90
6357;DHT22;3211;53.452;-2.264;2024-02-23T17:25:15;6.60;99.90
6357;DHT22;3211;53.452;-2.264;2024-02-23T17:28:03;6.50;99.90
6357;DHT22;3211;53.452;-2.264;2024-02-23T17:30:50;6.40;99.90
6357;DHT22;3211;53.452;-2.264;2024-02-23T17:33:37;6.50;99.90
6357;DHT22;3211;53.452;-2.264;2024-02-23T17:36:25;6.40;99.90
6357;DHT22;3211;53.452;-2.264;2024-02-23T17:39:13;6.40;99.90
6357;DHT22;3211;53.452;-2.264;2024-02-23T17:42:01;6.30;99.90
6357;DHT22;3211;53.452;-2.264;2024-02-23T17:44:49;6.50;99.90
6357;DHT22;3211;53.452;-2.264;2024-02-23T17:47:37;6.50;99.90
6357;DHT22;3211;53.452;-2.264;2024-02-23T17:50:24;6.30;99.90
6357;DHT22;3211;53.452;-2.264;2024-02-23T17:53:13;6.30;99.90
6357;DHT22;3211;53.452;-2.264;2024-02-23T17:56:01;6.30;99.90
6357;DHT22;3211;53.452;-2.264;2024-02-23T17:58:48;6.50;99.90
6357;DHT22;3211;53.452;-2.264;2024-02-23T18:01:36;6.40;99.90
6357;DHT22;3211;53.452;-2.264;2024-02-23T18:04:23;6.20;99.90
6357;DHT22;3211;53.452;-2.264;2024-02-23T18:07:11;6.30;99.90
6357;DHT22;3211;53.452;-2.264;2024-02-23T18:09:58;6.30;99.90
6357;DHT22;3211;53.452;-2.264;2024-02-23T18:12:46;6.30;99.90
6357;DHT22;3211;53.452;-2.264;2024-02-23T18:15:34;6.20;99.90